sensor_id;sensor_type;location;lat;lon;timestamp;pressure;altitude;pressure_sealevel;temperature
79495;BMP180;68951;53.130;18.104;2024-03-02T00:00:21;100589.00;;;
79495;BMP180;68951;53.130;18.104;2024-03-02T00:03:08;100587.00;;;
79495;BMP180;68951;53.130;18.104;2024-03-02T00:05:40;100583.00;;;
79495;BMP180;68951;53.130;18.104;2024-03-02T00:08:07;100582.20;;;
79495;BMP180;68951;53.130;18.104;2024-03-02T00:10:39;100579.00;;;
79495;BMP180;68951;53.130;18.104;2024-03-02T00:13:07;100577.80;;;
79495;BMP180;68951;53.130;18.104;2024-03-02T00:15:47;100582.80;;;
79495;BMP180;68951;53.130;18.104;2024-03-02T00:20:54;100580.40;;;
79495;BMP180;68951;53.130;18.104;2024-03-02T00:23:24;100579.20;;;
79495;BMP180;68951;53.130;18.104;2024-03-02T00:25:54;100576.20;;;
79495;BMP180;68951;53.130;18.104;2024-03-02T00:28:36;100571.40;;;
79495;BMP180;68951;53.130;18.104;2024-03-02T00:33:34;100571.20;;;
79495;BMP180;68951;53.130;18.104;2024-03-02T00:36:02;100575.20;;;
79495;BMP180;68951;53.130;18.104;2024-03-02T00:38:34;100569.80;;;
79495;BMP180;68951;53.130;18.104;2024-03-02T00:41:05;100571.00;;;
79495;BMP180;68951;53.130;18.104;2024-03-02T00:43:49;100569.40;;;
79495;BMP180;68951;53.130;18.104;2024-03-02T00:46:19;100562.40;;;
79495;BMP180;68951;53.130;18.104;2024-03-02T00:48:56;100566.00;;;
79495;BMP180;68951;53.130;18.104;2024-03-02T00:51:26;100572.60;;;
79495;BMP180;68951;53.130;18.104;2024-03-02T00:53:55;100574.60;;;
79495;BMP180;68951;53.130;18.104;2024-03-02T00:56:24;100573.00;;;
79495;BMP180;68951;53.130;18.104;2024-03-02T00:58:52;100574.20;;;
79495;BMP180;68951;53.130;18.104;2024-03-02T01:01:19;100571.20;;;
79495;BMP180;68951;53.130;18.104;2024-03-02T01:03:46;100565.80;;;
79495;BMP180;68951;53.130;18.104;2024-03-02T01:06:13;100561.60;;;
79495;BMP180;68951;53.130;18.104;2024-03-02T01:08:40;100561.00;;;
79495;BMP180;68951;53.130;18.104;2024-03-02T01:11:07;100554.80;;;
79495;BMP180;68951;53.130;18.104;2024-03-02T01:13:33;100546.60;;;
79495;BMP180;68951;53.130;18.104;2024-03-02T01:16:01;100540.20;;;
79495;BMP180;68951;53.130;18.104;2024-03-02T01:18:28;100540.20;;;
79495;BMP180;68951;53.130;18.104;2024-03-02T01:20:55;100538.80;;;
79495;BMP180;68951;53.130;18.104;2024-03-02T01:23:23;100538.60;;;
79495;BMP180;68951;53.130;18.104;2024-03-02T01:25:51;100539.20;;;
79495;BMP180;68951;53.130;18.104;2024-03-02T01:28:19;100542.20;;;
79495;BMP180;68951;53.130;18.104;2024-03-02T01:30:48;100539.60;;;
79495;BMP180;68951;53.130;18.104;2024-03-02T01:33:19;100534.00;;;
79495;BMP180;68951;53.130;18.104;2024-03-02T01:35:45;100526.20;;;
79495;BMP180;68951;53.130;18.104;2024-03-02T01:38:13;100521.20;;;
79495;BMP180;68951;53.130;18.104;2024-03-02T01:40:40;100514.80;;;
79495;BMP180;68951;53.130;18.104;2024-03-02T01:43:07;100505.60;;;
79495;BMP180;68951;53.130;18.104;2024-03-02T01:45:35;100504.40;;;
79495;BMP180;68951;53.130;18.104;2024-03-02T01:48:04;100504.20;;;
79495;BMP180;68951;53.130;18.104;2024-03-02T01:50:32;100506.20;;;
79495;BMP180;68951;53.130;18.104;2024-03-02T01:53:00;100509.40;;;
79495;BMP180;68951;53.130;18.104;2024-03-02T01:55:29;100513.40;;;
79495;BMP180;68951;53.130;18.104;2024-03-02T01:57:57;100517.80;;;
79495;BMP180;68951;53.130;18.104;2024-03-02T02:00:24;100518.20;;;
79495;BMP180;68951;53.130;18.104;2024-03-02T02:02:53;100514.40;;;
79495;BMP180;68951;53.130;18.104;2024-03-02T02:05:20;100506.20;;;
79495;BMP180;68951;53.130;18.104;2024-03-02T02:07:47;100516.60;;;
79495;BMP180;68951;53.130;18.104;2024-03-02T02:10:14;100521.00;;;
79495;BMP180;68951;53.130;18.104;2024-03-02T02:12:41;100518.40;;;
79495;BMP180;68951;53.130;18.104;2024-03-02T02:15:29;100514.00;;;
79495;BMP180;68951;53.130;18.104;2024-03-02T02:17:57;100516.40;;;
79495;BMP180;68951;53.130;18.104;2024-03-02T02:20:25;100513.40;;;
79495;BMP180;68951;53.130;18.104;2024-03-02T02:23:03;100507.80;;;
79495;BMP180;68951;53.130;18.104;2024-03-02T02:25:31;100509.20;;;
79495;BMP180;68951;53.130;18.104;2024-03-02T02:27:58;100513.60;;;
79495;BMP180;68951;53.130;18.104;2024-03-02T02:30:30;100514.00;;;
79495;BMP180;68951;53.130;18.104;2024-03-02T02:32:58;100516.60;;;
79495;BMP180;68951;53.130;18.104;2024-03-02T02:35:25;100517.40;;;
79495;BMP180;68951;53.130;18.104;2024-03-02T02:37:54;100517.00;;;
79495;BMP180;68951;53.130;18.104;2024-03-02T02:40:21;100508.00;;;
79495;BMP180;68951;53.130;18.104;2024-03-02T02:42:49;100514.60;;;
79495;BMP180;68951;53.130;18.104;2024-03-02T02:45:16;100509.60;;;
79495;BMP180;68951;53.130;18.104;2024-03-02T02:47:44;100509.40;;;
79495;BMP180;68951;53.130;18.104;2024-03-02T02:50:12;100499.60;;;
79495;BMP180;68951;53.130;18.104;2024-03-02T02:52:41;100508.20;;;
79495;BMP180;68951;53.130;18.104;2024-03-02T02:55:13;100512.20;;;
79495;BMP180;68951;53.130;18.104;2024-03-02T02:57:42;100508.40;;;
79495;BMP180;68951;53.130;18.104;2024-03-02T03:00:15;100505.40;;;
79495;BMP180;68951;53.130;18.104;2024-03-02T03:02:43;100503.40;;;
79495;BMP180;68951;53.130;18.104;2024-03-02T03:05:12;100504.60;;;
79495;BMP180;68951;53.130;18.104;2024-03-02T03:07:41;100511.40;;;
79495;BMP180;68951;53.130;18.104;2024-03-02T03:10:08;100509.60;;;
79495;BMP180;68951;53.130;18.104;2024-03-02T03:12:35;100505.00;;;
79495;BMP180;68951;53.130;18.104;2024-03-02T03:15:04;100512.40;;;
79495;BMP180;68951;53.130;18.104;2024-03-02T03:17:35;100509.20;;;
79495;BMP180;68951;53.130;18.104;2024-03-02T03:20:02;100515.40;;;
79495;BMP180;68951;53.130;18.104;2024-03-02T03:22:30;100516.80;;;
79495;BMP180;68951;53.130;18.104;2024-03-02T03:25:02;100511.40;;;
79495;BMP180;68951;53.130;18.104;2024-03-02T03:27:30;100509.20;;;
79495;BMP180;68951;53.130;18.104;2024-03-02T03:29:57;100500.00;;;
79495;BMP180;68951;53.130;18.104;2024-03-02T03:32:23;100494.20;;;
79495;BMP180;68951;53.130;18.104;2024-03-02T03:34:51;100500.80;;;
79495;BMP180;68951;53.130;18.104;2024-03-02T03:37:18;100498.20;;;
79495;BMP180;68951;53.130;18.104;2024-03-02T03:39:45;100499.40;;;
79495;BMP180;68951;53.130;18.104;2024-03-02T03:42:13;100496.60;;;
79495;BMP180;68951;53.130;18.104;2024-03-02T03:44:40;100491.80;;;
79495;BMP180;68951;53.130;18.104;2024-03-02T03:47:08;100493.20;;;
79495;BMP180;68951;53.130;18.104;2024-03-02T03:49:35;100486.00;;;
79495;BMP180;68951;53.130;18.104;2024-03-02T03:52:02;100488.00;;;
79495;BMP180;68951;53.130;18.104;2024-03-02T03:54:29;100487.80;;;
79495;BMP180;68951;53.130;18.104;2024-03-02T03:56:55;100491.00;;;
79495;BMP180;68951;53.130;18.104;2024-03-02T03:59:22;100483.80;;;
79495;BMP180;68951;53.130;18.104;2024-03-02T04:01:50;100484.80;;;
79495;BMP180;68951;53.130;18.104;2024-03-02T04:04:17;100483.40;;;
79495;BMP180;68951;53.130;18.104;2024-03-02T04:06:43;100479.00;;;
79495;BMP180;68951;53.130;18.104;2024-03-02T04:09:11;100477.20;;;
79495;BMP180;68951;53.130;18.104;2024-03-02T04:11:37;100479.40;;;
79495;BMP180;68951;53.130;18.104;2024-03-02T04:14:04;100479.60;;;
79495;BMP180;68951;53.130;18.104;2024-03-02T04:16:32;100477.00;;;
79495;BMP180;68951;53.130;18.104;2024-03-02T04:18:59;100474.20;;;
79495;BMP180;68951;53.130;18.104;2024-03-02T04:21:26;100476.60;;;
79495;BMP180;68951;53.130;18.104;2024-03-02T04:23:53;100483.00;;;
79495;BMP180;68951;53.130;18.104;2024-03-02T04:26:24;100480.80;;;
79495;BMP180;68951;53.130;18.104;2024-03-02T04:28:54;100481.60;;;
79495;BMP180;68951;53.130;18.104;2024-03-02T04:31:22;100483.00;;;
79495;BMP180;68951;53.130;18.104;2024-03-02T04:33:48;100480.20;;;
79495;BMP180;68951;53.130;18.104;2024-03-02T04:36:15;100475.00;;;
79495;BMP180;68951;53.130;18.104;2024-03-02T04:38:42;100471.20;;;
79495;BMP180;68951;53.130;18.104;2024-03-02T04:41:09;100462.00;;;
79495;BMP180;68951;53.130;18.104;2024-03-02T04:43:36;100466.00;;;
79495;BMP180;68951;53.130;18.104;2024-03-02T04:46:03;100473.00;;;
79495;BMP180;68951;53.130;18.104;2024-03-02T04:48:30;100491.20;;;
79495;BMP180;68951;53.130;18.104;2024-03-02T04:50:56;100478.40;;;
79495;BMP180;68951;53.130;18.104;2024-03-02T04:53:23;100481.40;;;
79495;BMP180;68951;53.130;18.104;2024-03-02T04:55:50;100486.60;;;
79495;BMP180;68951;53.130;18.104;2024-03-02T04:58:35;100480.00;;;
79495;BMP180;68951;53.130;18.104;2024-03-02T05:01:02;100487.40;;;
79495;BMP180;68951;53.130;18.104;2024-03-02T05:03:28;100490.00;;;
79495;BMP180;68951;53.130;18.104;2024-03-02T05:05:55;100490.00;;;
79495;BMP180;68951;53.130;18.104;2024-03-02T05:08:22;100497.00;;;
79495;BMP180;68951;53.130;18.104;2024-03-02T05:10:49;100502.60;;;
79495;BMP180;68951;53.130;18.104;2024-03-02T05:13:16;100497.60;;;
79495;BMP180;68951;53.130;18.104;2024-03-02T05:15:44;100500.20;;;
79495;BMP180;68951;53.130;18.104;2024-03-02T05:18:11;100513.60;;;
79495;BMP180;68951;53.130;18.104;2024-03-02T05:20:37;100510.60;;;
79495;BMP180;68951;53.130;18.104;2024-03-02T05:23:04;100513.60;;;
79495;BMP180;68951;53.130;18.104;2024-03-02T05:25:31;100516.40;;;
79495;BMP180;68951;53.130;18.104;2024-03-02T05:27:59;100507.60;;;
79495;BMP180;68951;53.130;18.104;2024-03-02T05:30:25;100511.80;;;
79495;BMP180;68951;53.130;18.104;2024-03-02T05:32:52;100505.20;;;
79495;BMP180;68951;53.130;18.104;2024-03-02T05:35:19;100510.40;;;
79495;BMP180;68951;53.130;18.104;2024-03-02T05:37:46;100512.20;;;
79495;BMP180;68951;53.130;18.104;2024-03-02T05:40:13;100513.40;;;
79495;BMP180;68951;53.130;18.104;2024-03-02T05:42:40;100516.80;;;
79495;BMP180;68951;53.130;18.104;2024-03-02T05:45:08;100515.20;;;
79495;BMP180;68951;53.130;18.104;2024-03-02T05:47:34;100526.20;;;
79495;BMP180;68951;53.130;18.104;2024-03-02T05:50:02;100536.20;;;
79495;BMP180;68951;53.130;18.104;2024-03-02T05:52:30;100526.00;;;
79495;BMP180;68951;53.130;18.104;2024-03-02T05:54:57;100532.20;;;
79495;BMP180;68951;53.130;18.104;2024-03-02T05:57:23;100540.80;;;
79495;BMP180;68951;53.130;18.104;2024-03-02T06:00:09;100536.80;;;
79495;BMP180;68951;53.130;18.104;2024-03-02T06:02:40;100547.80;;;
79495;BMP180;68951;53.130;18.104;2024-03-02T06:05:09;100551.20;;;
79495;BMP180;68951;53.130;18.104;2024-03-02T06:07:36;100546.80;;;
79495;BMP180;68951;53.130;18.104;2024-03-02T06:10:03;100550.40;;;
79495;BMP180;68951;53.130;18.104;2024-03-02T06:12:31;100550.60;;;
79495;BMP180;68951;53.130;18.104;2024-03-02T06:14:59;100548.80;;;
79495;BMP180;68951;53.130;18.104;2024-03-02T06:17:25;100554.20;;;
79495;BMP180;68951;53.130;18.104;2024-03-02T06:19:52;100551.60;;;
79495;BMP180;68951;53.130;18.104;2024-03-02T06:22:19;100552.60;;;
79495;BMP180;68951;53.130;18.104;2024-03-02T06:24:46;100548.20;;;
79495;BMP180;68951;53.130;18.104;2024-03-02T06:27:12;100551.80;;;
79495;BMP180;68951;53.130;18.104;2024-03-02T06:29:39;100551.80;;;
79495;BMP180;68951;53.130;18.104;2024-03-02T06:32:06;100550.00;;;
79495;BMP180;68951;53.130;18.104;2024-03-02T06:34:33;100550.00;;;
79495;BMP180;68951;53.130;18.104;2024-03-02T06:37:00;100553.40;;;
79495;BMP180;68951;53.130;18.104;2024-03-02T06:39:26;100555.80;;;
79495;BMP180;68951;53.130;18.104;2024-03-02T06:41:53;100559.60;;;
79495;BMP180;68951;53.130;18.104;2024-03-02T06:44:20;100562.00;;;
79495;BMP180;68951;53.130;18.104;2024-03-02T06:46:47;100557.60;;;
79495;BMP180;68951;53.130;18.104;2024-03-02T06:49:14;100556.20;;;
79495;BMP180;68951;53.130;18.104;2024-03-02T06:51:41;100551.20;;;
79495;BMP180;68951;53.130;18.104;2024-03-02T06:54:09;100549.40;;;
79495;BMP180;68951;53.130;18.104;2024-03-02T06:56:35;100547.00;;;
79495;BMP180;68951;53.130;18.104;2024-03-02T06:59:02;100541.60;;;
79495;BMP180;68951;53.130;18.104;2024-03-02T07:01:29;100536.40;;;
79495;BMP180;68951;53.130;18.104;2024-03-02T07:03:56;100536.40;;;
79495;BMP180;68951;53.130;18.104;2024-03-02T07:06:23;100539.20;;;
79495;BMP180;68951;53.130;18.104;2024-03-02T07:08:50;100553.60;;;
79495;BMP180;68951;53.130;18.104;2024-03-02T07:11:16;100558.80;;;
79495;BMP180;68951;53.130;18.104;2024-03-02T07:13:43;100556.40;;;
79495;BMP180;68951;53.130;18.104;2024-03-02T07:16:10;100555.60;;;
79495;BMP180;68951;53.130;18.104;2024-03-02T07:18:37;100558.40;;;
79495;BMP180;68951;53.130;18.104;2024-03-02T07:21:07;100560.80;;;
79495;BMP180;68951;53.130;18.104;2024-03-02T07:23:34;100563.60;;;
79495;BMP180;68951;53.130;18.104;2024-03-02T07:26:03;100559.00;;;
79495;BMP180;68951;53.130;18.104;2024-03-02T07:28:31;100559.60;;;
79495;BMP180;68951;53.130;18.104;2024-03-02T07:31:03;100565.20;;;
79495;BMP180;68951;53.130;18.104;2024-03-02T07:33:31;100576.80;;;
79495;BMP180;68951;53.130;18.104;2024-03-02T07:35:59;100590.00;;;
79495;BMP180;68951;53.130;18.104;2024-03-02T07:38:28;100593.20;;;
79495;BMP180;68951;53.130;18.104;2024-03-02T07:40:55;100586.60;;;
79495;BMP180;68951;53.130;18.104;2024-03-02T07:43:23;100582.60;;;
79495;BMP180;68951;53.130;18.104;2024-03-02T07:45:50;100581.40;;;
79495;BMP180;68951;53.130;18.104;2024-03-02T07:48:17;100585.40;;;
79495;BMP180;68951;53.130;18.104;2024-03-02T07:50:43;100581.20;;;
79495;BMP180;68951;53.130;18.104;2024-03-02T07:53:11;100574.60;;;
79495;BMP180;68951;53.130;18.104;2024-03-02T07:55:38;100570.00;;;
79495;BMP180;68951;53.130;18.104;2024-03-02T07:58:05;100569.00;;;
79495;BMP180;68951;53.130;18.104;2024-03-02T08:00:32;100576.40;;;
79495;BMP180;68951;53.130;18.104;2024-03-02T08:03:01;100575.60;;;
79495;BMP180;68951;53.130;18.104;2024-03-02T08:05:28;100583.80;;;
79495;BMP180;68951;53.130;18.104;2024-03-02T08:07:54;100585.00;;;
79495;BMP180;68951;53.130;18.104;2024-03-02T08:10:21;100591.40;;;
79495;BMP180;68951;53.130;18.104;2024-03-02T08:12:48;100589.80;;;
79495;BMP180;68951;53.130;18.104;2024-03-02T08:15:15;100598.60;;;
79495;BMP180;68951;53.130;18.104;2024-03-02T08:17:44;100602.80;;;
79495;BMP180;68951;53.130;18.104;2024-03-02T08:20:16;100603.60;;;
79495;BMP180;68951;53.130;18.104;2024-03-02T08:22:43;100609.80;;;
79495;BMP180;68951;53.130;18.104;2024-03-02T08:25:09;100616.00;;;
79495;BMP180;68951;53.130;18.104;2024-03-02T08:27:37;100614.00;;;
79495;BMP180;68951;53.130;18.104;2024-03-02T08:30:05;100619.20;;;
79495;BMP180;68951;53.130;18.104;2024-03-02T08:32:33;100616.00;;;
79495;BMP180;68951;53.130;18.104;2024-03-02T08:35:00;100608.40;;;
79495;BMP180;68951;53.130;18.104;2024-03-02T08:37:27;100593.80;;;
79495;BMP180;68951;53.130;18.104;2024-03-02T08:39:54;100593.20;;;
79495;BMP180;68951;53.130;18.104;2024-03-02T08:42:22;100599.20;;;
79495;BMP180;68951;53.130;18.104;2024-03-02T08:44:49;100604.00;;;
79495;BMP180;68951;53.130;18.104;2024-03-02T08:47:16;100602.20;;;
79495;BMP180;68951;53.130;18.104;2024-03-02T08:49:43;100608.40;;;
79495;BMP180;68951;53.130;18.104;2024-03-02T08:52:10;100613.40;;;
79495;BMP180;68951;53.130;18.104;2024-03-02T08:54:37;100622.60;;;
79495;BMP180;68951;53.130;18.104;2024-03-02T08:57:05;100618.00;;;
79495;BMP180;68951;53.130;18.104;2024-03-02T08:59:32;100621.40;;;
79495;BMP180;68951;53.130;18.104;2024-03-02T09:02:00;100626.00;;;
79495;BMP180;68951;53.130;18.104;2024-03-02T09:04:29;100622.80;;;
79495;BMP180;68951;53.130;18.104;2024-03-02T09:06:56;100616.40;;;
79495;BMP180;68951;53.130;18.104;2024-03-02T09:09:23;100620.80;;;
79495;BMP180;68951;53.130;18.104;2024-03-02T09:11:51;100626.80;;;
79495;BMP180;68951;53.130;18.104;2024-03-02T09:14:21;100634.80;;;
79495;BMP180;68951;53.130;18.104;2024-03-02T09:16:49;100631.00;;;
79495;BMP180;68951;53.130;18.104;2024-03-02T09:19:16;100634.60;;;
79495;BMP180;68951;53.130;18.104;2024-03-02T09:21:43;100629.20;;;
79495;BMP180;68951;53.130;18.104;2024-03-02T09:24:10;100633.80;;;
79495;BMP180;68951;53.130;18.104;2024-03-02T09:26:37;100643.80;;;
79495;BMP180;68951;53.130;18.104;2024-03-02T09:29:04;100638.80;;;
79495;BMP180;68951;53.130;18.104;2024-03-02T09:31:31;100635.00;;;
79495;BMP180;68951;53.130;18.104;2024-03-02T09:33:57;100629.20;;;
79495;BMP180;68951;53.130;18.104;2024-03-02T09:36:24;100620.60;;;
79495;BMP180;68951;53.130;18.104;2024-03-02T09:38:51;100617.40;;;
79495;BMP180;68951;53.130;18.104;2024-03-02T09:41:18;100625.20;;;
79495;BMP180;68951;53.130;18.104;2024-03-02T09:43:45;100628.40;;;
79495;BMP180;68951;53.130;18.104;2024-03-02T09:46:12;100623.00;;;
79495;BMP180;68951;53.130;18.104;2024-03-02T09:48:39;100630.60;;;
79495;BMP180;68951;53.130;18.104;2024-03-02T09:51:07;100633.60;;;
79495;BMP180;68951;53.130;18.104;2024-03-02T09:53:34;100630.80;;;
79495;BMP180;68951;53.130;18.104;2024-03-02T09:56:02;100640.20;;;
79495;BMP180;68951;53.130;18.104;2024-03-02T09:58:29;100636.40;;;
79495;BMP180;68951;53.130;18.104;2024-03-02T10:00:56;100644.80;;;
79495;BMP180;68951;53.130;18.104;2024-03-02T10:03:23;100642.00;;;
79495;BMP180;68951;53.130;18.104;2024-03-02T10:05:53;100644.20;;;
79495;BMP180;68951;53.130;18.104;2024-03-02T10:08:20;100645.80;;;
79495;BMP180;68951;53.130;18.104;2024-03-02T10:10:46;100648.60;;;
79495;BMP180;68951;53.130;18.104;2024-03-02T10:13:13;100643.60;;;
79495;BMP180;68951;53.130;18.104;2024-03-02T10:15:41;100643.00;;;
79495;BMP180;68951;53.130;18.104;2024-03-02T10:18:12;100638.40;;;
79495;BMP180;68951;53.130;18.104;2024-03-02T10:20:40;100637.00;;;
79495;BMP180;68951;53.130;18.104;2024-03-02T10:23:16;100634.40;;;
79495;BMP180;68951;53.130;18.104;2024-03-02T10:25:44;100631.60;;;
79495;BMP180;68951;53.130;18.104;2024-03-02T10:28:11;100635.00;;;
79495;BMP180;68951;53.130;18.104;2024-03-02T10:30:38;100633.80;;;
79495;BMP180;68951;53.130;18.104;2024-03-02T10:33:06;100638.20;;;
79495;BMP180;68951;53.130;18.104;2024-03-02T10:35:33;100637.00;;;
79495;BMP180;68951;53.130;18.104;2024-03-02T10:38:04;100631.00;;;
79495;BMP180;68951;53.130;18.104;2024-03-02T10:40:32;100630.20;;;
79495;BMP180;68951;53.130;18.104;2024-03-02T10:43:01;100629.80;;;
79495;BMP180;68951;53.130;18.104;2024-03-02T10:45:30;100629.80;;;
79495;BMP180;68951;53.130;18.104;2024-03-02T10:47:58;100630.00;;;
79495;BMP180;68951;53.130;18.104;2024-03-02T10:50:24;100642.20;;;
79495;BMP180;68951;53.130;18.104;2024-03-02T10:52:51;100640.20;;;
79495;BMP180;68951;53.130;18.104;2024-03-02T10:55:18;100629.80;;;
79495;BMP180;68951;53.130;18.104;2024-03-02T10:57:53;100622.60;;;
79495;BMP180;68951;53.130;18.104;2024-03-02T11:00:24;100622.00;;;
79495;BMP180;68951;53.130;18.104;2024-03-02T11:03:04;100626.40;;;
79495;BMP180;68951;53.130;18.104;2024-03-02T11:05:37;100630.00;;;
79495;BMP180;68951;53.130;18.104;2024-03-02T11:08:08;100627.20;;;
79495;BMP180;68951;53.130;18.104;2024-03-02T11:10:54;100623.60;;;
79495;BMP180;68951;53.130;18.104;2024-03-02T11:13:34;100629.00;;;
79495;BMP180;68951;53.130;18.104;2024-03-02T11:16:10;100627.20;;;
79495;BMP180;68951;53.130;18.104;2024-03-02T11:18:40;100624.20;;;
79495;BMP180;68951;53.130;18.104;2024-03-02T11:21:08;100628.40;;;
79495;BMP180;68951;53.130;18.104;2024-03-02T11:23:35;100634.00;;;
79495;BMP180;68951;53.130;18.104;2024-03-02T11:26:22;100632.40;;;
79495;BMP180;68951;53.130;18.104;2024-03-02T11:28:50;100624.60;;;
79495;BMP180;68951;53.130;18.104;2024-03-02T11:31:17;100624.80;;;
79495;BMP180;68951;53.130;18.104;2024-03-02T11:33:44;100629.80;;;
79495;BMP180;68951;53.130;18.104;2024-03-02T11:36:11;100626.40;;;
79495;BMP180;68951;53.130;18.104;2024-03-02T11:38:38;100621.80;;;
79495;BMP180;68951;53.130;18.104;2024-03-02T11:41:08;100626.20;;;
79495;BMP180;68951;53.130;18.104;2024-03-02T11:43:39;100627.80;;;
79495;BMP180;68951;53.130;18.104;2024-03-02T11:46:10;100634.00;;;
79495;BMP180;68951;53.130;18.104;2024-03-02T11:48:39;100634.60;;;
79495;BMP180;68951;53.130;18.104;2024-03-02T11:51:06;100628.20;;;
79495;BMP180;68951;53.130;18.104;2024-03-02T11:53:35;100629.60;;;
79495;BMP180;68951;53.130;18.104;2024-03-02T11:56:02;100629.60;;;
79495;BMP180;68951;53.130;18.104;2024-03-02T11:58:30;100626.80;;;
79495;BMP180;68951;53.130;18.104;2024-03-02T12:00:57;100626.80;;;
79495;BMP180;68951;53.130;18.104;2024-03-02T12:03:25;100629.20;;;
79495;BMP180;68951;53.130;18.104;2024-03-02T12:05:53;100634.80;;;
79495;BMP180;68951;53.130;18.104;2024-03-02T12:08:21;100637.60;;;
79495;BMP180;68951;53.130;18.104;2024-03-02T12:11:00;100635.60;;;
79495;BMP180;68951;53.130;18.104;2024-03-02T12:13:27;100631.40;;;
79495;BMP180;68951;53.130;18.104;2024-03-02T12:15:55;100633.60;;;
79495;BMP180;68951;53.130;18.104;2024-03-02T12:18:23;100625.20;;;
79495;BMP180;68951;53.130;18.104;2024-03-02T12:20:50;100630.60;;;
79495;BMP180;68951;53.130;18.104;2024-03-02T12:23:19;100627.20;;;
79495;BMP180;68951;53.130;18.104;2024-03-02T12:25:47;100631.40;;;
79495;BMP180;68951;53.130;18.104;2024-03-02T12:28:14;100632.20;;;
79495;BMP180;68951;53.130;18.104;2024-03-02T12:30:41;100631.20;;;
79495;BMP180;68951;53.130;18.104;2024-03-02T12:33:11;100627.60;;;
79495;BMP180;68951;53.130;18.104;2024-03-02T12:35:38;100627.80;;;
79495;BMP180;68951;53.130;18.104;2024-03-02T12:38:06;100627.80;;;
79495;BMP180;68951;53.130;18.104;2024-03-02T12:40:32;100622.60;;;
79495;BMP180;68951;53.130;18.104;2024-03-02T12:42:59;100615.80;;;
79495;BMP180;68951;53.130;18.104;2024-03-02T12:45:27;100618.00;;;
79495;BMP180;68951;53.130;18.104;2024-03-02T12:47:54;100617.80;;;
79495;BMP180;68951;53.130;18.104;2024-03-02T12:50:21;100618.00;;;
79495;BMP180;68951;53.130;18.104;2024-03-02T12:52:55;100621.40;;;
79495;BMP180;68951;53.130;18.104;2024-03-02T12:55:23;100616.60;;;
79495;BMP180;68951;53.130;18.104;2024-03-02T12:57:51;100612.00;;;
79495;BMP180;68951;53.130;18.104;2024-03-02T13:00:20;100615.40;;;
79495;BMP180;68951;53.130;18.104;2024-03-02T13:02:48;100615.80;;;
79495;BMP180;68951;53.130;18.104;2024-03-02T13:05:17;100613.40;;;
79495;BMP180;68951;53.130;18.104;2024-03-02T13:07:47;100619.40;;;
79495;BMP180;68951;53.130;18.104;2024-03-02T13:10:14;100615.00;;;
79495;BMP180;68951;53.130;18.104;2024-03-02T13:12:40;100619.60;;;
79495;BMP180;68951;53.130;18.104;2024-03-02T13:15:08;100616.80;;;
79495;BMP180;68951;53.130;18.104;2024-03-02T13:17:36;100615.40;;;
79495;BMP180;68951;53.130;18.104;2024-03-02T13:20:03;100613.20;;;
79495;BMP180;68951;53.130;18.104;2024-03-02T13:22:36;100608.00;;;
79495;BMP180;68951;53.130;18.104;2024-03-02T13:25:05;100606.00;;;
79495;BMP180;68951;53.130;18.104;2024-03-02T13:27:32;100603.00;;;
79495;BMP180;68951;53.130;18.104;2024-03-02T13:30:01;100607.20;;;
79495;BMP180;68951;53.130;18.104;2024-03-02T13:32:28;100608.80;;;
79495;BMP180;68951;53.130;18.104;2024-03-02T13:34:55;100607.40;;;
79495;BMP180;68951;53.130;18.104;2024-03-02T13:37:22;100604.60;;;
79495;BMP180;68951;53.130;18.104;2024-03-02T13:39:49;100603.40;;;
79495;BMP180;68951;53.130;18.104;2024-03-02T13:42:16;100606.40;;;
79495;BMP180;68951;53.130;18.104;2024-03-02T13:44:43;100608.40;;;
79495;BMP180;68951;53.130;18.104;2024-03-02T13:47:14;100607.40;;;
79495;BMP180;68951;53.130;18.104;2024-03-02T13:49:41;100610.00;;;
79495;BMP180;68951;53.130;18.104;2024-03-02T13:52:12;100610.40;;;
79495;BMP180;68951;53.130;18.104;2024-03-02T13:54:45;100607.00;;;
79495;BMP180;68951;53.130;18.104;2024-03-02T13:57:13;100608.40;;;
79495;BMP180;68951;53.130;18.104;2024-03-02T13:59:42;100608.60;;;
79495;BMP180;68951;53.130;18.104;2024-03-02T14:02:09;100610.40;;;
79495;BMP180;68951;53.130;18.104;2024-03-02T14:04:37;100615.00;;;
79495;BMP180;68951;53.130;18.104;2024-03-02T14:07:04;100615.80;;;
79495;BMP180;68951;53.130;18.104;2024-03-02T14:09:34;100612.00;;;
79495;BMP180;68951;53.130;18.104;2024-03-02T14:12:02;100615.40;;;
79495;BMP180;68951;53.130;18.104;2024-03-02T14:14:29;100615.80;;;
79495;BMP180;68951;53.130;18.104;2024-03-02T14:16:56;100619.60;;;
79495;BMP180;68951;53.130;18.104;2024-03-02T14:19:26;100620.40;;;
79495;BMP180;68951;53.130;18.104;2024-03-02T14:21:53;100618.80;;;
79495;BMP180;68951;53.130;18.104;2024-03-02T14:24:20;100616.00;;;
79495;BMP180;68951;53.130;18.104;2024-03-02T14:26:50;100615.40;;;
79495;BMP180;68951;53.130;18.104;2024-03-02T14:29:17;100616.00;;;
79495;BMP180;68951;53.130;18.104;2024-03-02T14:31:44;100613.40;;;
79495;BMP180;68951;53.130;18.104;2024-03-02T14:34:15;100614.80;;;
79495;BMP180;68951;53.130;18.104;2024-03-02T14:36:42;100614.60;;;
79495;BMP180;68951;53.130;18.104;2024-03-02T14:39:11;100614.40;;;
79495;BMP180;68951;53.130;18.104;2024-03-02T14:41:38;100617.00;;;
79495;BMP180;68951;53.130;18.104;2024-03-02T14:44:05;100616.60;;;
79495;BMP180;68951;53.130;18.104;2024-03-02T14:46:34;100618.40;;;
79495;BMP180;68951;53.130;18.104;2024-03-02T14:49:01;100611.80;;;
79495;BMP180;68951;53.130;18.104;2024-03-02T14:51:28;100612.40;;;
79495;BMP180;68951;53.130;18.104;2024-03-02T14:53:56;100609.80;;;
79495;BMP180;68951;53.130;18.104;2024-03-02T14:56:23;100606.60;;;
79495;BMP180;68951;53.130;18.104;2024-03-02T14:58:50;100607.60;;;